Claysville, Ohio
Current Conditions -  °F | °C
As of 7:53 AM on Saturday 25 Oct 2014 (Local Time) from KZZV Reporting Station
Few Clouds Few Clouds  
Wind Chill: 38°   Ceiling: Unl
Heat Index: 38°   Visibility: 9mi
Dew Point: 35°   Wind: 3mph
Humidity: 89%   Direction: 170°S
Pressure: 29.97"   Gusts: NA
Location:  40.0425°N, 81.6006°W
Report Text: KZZV 251153Z AUTO 17003KT 9SM FEW100 03/02 A2997 RMK AO2 SLP152 T00330017 10044 20022 58006
Loading
Personal Weather Stations






























Interactive Weather Map
Tropical Storm Tracking
New forecast layout! Learn more

10-Day Weather Forecast

Advertisements
Track Severe Weather on mobile